sensor_id;sensor_type;location;lat;lon;timestamp;temperature;humidity
50804;DHT22;37205;51.434;6.756;2022-08-04T00:00:39;26.10;97.50
50804;DHT22;37205;51.434;6.756;2022-08-04T00:03:17;26.10;97.50
50804;DHT22;37205;51.434;6.756;2022-08-04T00:06:03;26.10;97.70
50804;DHT22;37205;51.434;6.756;2022-08-04T00:08:54;26.00;97.70
50804;DHT22;37205;51.434;6.756;2022-08-04T00:11:22;26.00;97.80
50804;DHT22;37205;51.434;6.756;2022-08-04T00:13:56;26.00;97.90
50804;DHT22;37205;51.434;6.756;2022-08-04T00:16:22;26.00;97.70
50804;DHT22;37205;51.434;6.756;2022-08-04T00:18:57;25.90;98.00
50804;DHT22;37205;51.434;6.756;2022-08-04T00:21:25;25.90;97.90
50804;DHT22;37205;51.434;6.756;2022-08-04T00:23:53;26.00;97.90
50804;DHT22;37205;51.434;6.756;2022-08-04T00:26:19;25.90;97.90
50804;DHT22;37205;51.434;6.756;2022-08-04T00:28:46;25.90;98.00
50804;DHT22;37205;51.434;6.756;2022-08-04T00:31:14;25.90;97.90
50804;DHT22;37205;51.434;6.756;2022-08-04T00:33:49;25.90;98.10
50804;DHT22;37205;51.434;6.756;2022-08-04T00:36:16;25.90;98.10
50804;DHT22;37205;51.434;6.756;2022-08-04T00:38:43;25.90;98.10
50804;DHT22;37205;51.434;6.756;2022-08-04T00:50:04;25.80;98.20
50804;DHT22;37205;51.434;6.756;2022-08-04T00:52:48;25.80;98.30
50804;DHT22;37205;51.434;6.756;2022-08-04T00:58:42;25.80;98.30
50804;DHT22;37205;51.434;6.756;2022-08-04T01:09:12;25.80;98.40
50804;DHT22;37205;51.434;6.756;2022-08-04T01:17:36;25.80;98.60
50804;DHT22;37205;51.434;6.756;2022-08-04T01:20:06;25.80;98.50
50804;DHT22;37205;51.434;6.756;2022-08-04T01:25:20;25.80;98.70
50804;DHT22;37205;51.434;6.756;2022-08-04T01:30:54;25.70;98.90
50804;DHT22;37205;51.434;6.756;2022-08-04T01:33:21;25.70;98.80
50804;DHT22;37205;51.434;6.756;2022-08-04T01:35:51;25.60;98.70
50804;DHT22;37205;51.434;6.756;2022-08-04T01:41:05;25.60;99.00
50804;DHT22;37205;51.434;6.756;2022-08-04T01:43:34;25.60;98.90
50804;DHT22;37205;51.434;6.756;2022-08-04T01:46:03;25.60;99.00
50804;DHT22;37205;51.434;6.756;2022-08-04T01:48:29;25.60;99.00
50804;DHT22;37205;51.434;6.756;2022-08-04T01:51:02;25.60;99.00
50804;DHT22;37205;51.434;6.756;2022-08-04T01:53:30;25.50;99.10
50804;DHT22;37205;51.434;6.756;2022-08-04T01:55:57;25.60;99.30
50804;DHT22;37205;51.434;6.756;2022-08-04T01:58:23;25.50;99.20
50804;DHT22;37205;51.434;6.756;2022-08-04T02:01:06;25.50;99.20
50804;DHT22;37205;51.434;6.756;2022-08-04T02:03:33;25.50;99.50
50804;DHT22;37205;51.434;6.756;2022-08-04T02:06:27;25.40;99.50
50804;DHT22;37205;51.434;6.756;2022-08-04T02:09:26;25.40;99.50
50804;DHT22;37205;51.434;6.756;2022-08-04T02:18:04;25.30;99.90
50804;DHT22;37205;51.434;6.756;2022-08-04T02:20:54;25.30;99.90
50804;DHT22;37205;51.434;6.756;2022-08-04T02:23:42;25.20;99.90
50804;DHT22;37205;51.434;6.756;2022-08-04T02:26:15;25.20;99.90
50804;DHT22;37205;51.434;6.756;2022-08-04T02:29:12;25.20;99.90
50804;DHT22;37205;51.434;6.756;2022-08-04T02:36:50;25.20;99.90
50804;DHT22;37205;51.434;6.756;2022-08-04T02:39:18;25.10;99.90
50804;DHT22;37205;51.434;6.756;2022-08-04T02:41:47;25.10;99.90
50804;DHT22;37205;51.434;6.756;2022-08-04T02:44:13;25.10;99.90
50804;DHT22;37205;51.434;6.756;2022-08-04T02:46:45;25.00;99.90
50804;DHT22;37205;51.434;6.756;2022-08-04T02:49:13;25.10;99.90
50804;DHT22;37205;51.434;6.756;2022-08-04T02:51:42;25.00;99.90
50804;DHT22;37205;51.434;6.756;2022-08-04T02:54:09;25.00;99.90
50804;DHT22;37205;51.434;6.756;2022-08-04T02:56:36;24.90;99.90
50804;DHT22;37205;51.434;6.756;2022-08-04T02:59:10;25.00;99.90
50804;DHT22;37205;51.434;6.756;2022-08-04T03:01:36;24.90;99.90
50804;DHT22;37205;51.434;6.756;2022-08-04T03:07:11;24.80;99.90
50804;DHT22;37205;51.434;6.756;2022-08-04T03:21:28;24.60;99.90
50804;DHT22;37205;51.434;6.756;2022-08-04T03:32:36;24.50;99.90
50804;DHT22;37205;51.434;6.756;2022-08-04T03:38:17;24.40;99.90
50804;DHT22;37205;51.434;6.756;2022-08-04T03:47:19;24.30;99.90
50804;DHT22;37205;51.434;6.756;2022-08-04T03:53:25;24.30;99.90
50804;DHT22;37205;51.434;6.756;2022-08-04T03:56:26;24.20;99.90
50804;DHT22;37205;51.434;6.756;2022-08-04T04:07:50;24.10;99.90
50804;DHT22;37205;51.434;6.756;2022-08-04T04:11:18;24.00;99.90
50804;DHT22;37205;51.434;6.756;2022-08-04T04:16:45;24.00;99.90
50804;DHT22;37205;51.434;6.756;2022-08-04T04:30:06;23.80;99.90
50804;DHT22;37205;51.434;6.756;2022-08-04T04:38:51;23.70;99.90
50804;DHT22;37205;51.434;6.756;2022-08-04T04:42:03;23.70;99.90
50804;DHT22;37205;51.434;6.756;2022-08-04T04:48:08;23.60;99.90
50804;DHT22;37205;51.434;6.756;2022-08-04T04:53:32;23.70;99.90
50804;DHT22;37205;51.434;6.756;2022-08-04T04:56:23;23.60;99.90
50804;DHT22;37205;51.434;6.756;2022-08-04T04:58:51;23.70;99.90
50804;DHT22;37205;51.434;6.756;2022-08-04T05:07:31;23.60;99.90
50804;DHT22;37205;51.434;6.756;2022-08-04T05:15:46;23.60;99.90
50804;DHT22;37205;51.434;6.756;2022-08-04T05:18:20;23.60;99.90
50804;DHT22;37205;51.434;6.756;2022-08-04T05:20:55;23.60;99.90
50804;DHT22;37205;51.434;6.756;2022-08-04T05:23:26;23.60;99.90
50804;DHT22;37205;51.434;6.756;2022-08-04T05:25:58;23.70;99.90
50804;DHT22;37205;51.434;6.756;2022-08-04T05:28:28;23.70;99.90
50804;DHT22;37205;51.434;6.756;2022-08-04T05:31:00;23.70;99.90
50804;DHT22;37205;51.434;6.756;2022-08-04T05:33:33;23.70;99.90
50804;DHT22;37205;51.434;6.756;2022-08-04T05:36:05;23.70;99.90
50804;DHT22;37205;51.434;6.756;2022-08-04T05:38:37;23.80;99.90
50804;DHT22;37205;51.434;6.756;2022-08-04T05:41:04;23.80;99.90
50804;DHT22;37205;51.434;6.756;2022-08-04T05:43:31;23.80;99.90
50804;DHT22;37205;51.434;6.756;2022-08-04T05:45:57;23.70;99.90
50804;DHT22;37205;51.434;6.756;2022-08-04T05:48:24;23.80;99.90
50804;DHT22;37205;51.434;6.756;2022-08-04T05:50:50;23.80;99.90
50804;DHT22;37205;51.434;6.756;2022-08-04T05:53:17;23.80;99.90
50804;DHT22;37205;51.434;6.756;2022-08-04T05:55:44;23.80;99.90
50804;DHT22;37205;51.434;6.756;2022-08-04T05:58:10;23.80;99.90
50804;DHT22;37205;51.434;6.756;2022-08-04T06:00:38;23.80;99.90
50804;DHT22;37205;51.434;6.756;2022-08-04T06:03:07;23.80;99.90
50804;DHT22;37205;51.434;6.756;2022-08-04T06:05:34;23.90;99.90
50804;DHT22;37205;51.434;6.756;2022-08-04T06:08:00;23.80;99.90
50804;DHT22;37205;51.434;6.756;2022-08-04T06:10:26;23.90;99.90
50804;DHT22;37205;51.434;6.756;2022-08-04T06:12:55;23.90;99.90
50804;DHT22;37205;51.434;6.756;2022-08-04T06:15:23;23.90;99.90
50804;DHT22;37205;51.434;6.756;2022-08-04T06:18:02;23.90;99.90
50804;DHT22;37205;51.434;6.756;2022-08-04T06:20:30;24.00;99.90
50804;DHT22;37205;51.434;6.756;2022-08-04T06:23:00;24.00;99.90
50804;DHT22;37205;51.434;6.756;2022-08-04T06:25:32;24.00;99.90
50804;DHT22;37205;51.434;6.756;2022-08-04T06:27:59;24.00;99.90
50804;DHT22;37205;51.434;6.756;2022-08-04T06:30:27;24.00;99.90
50804;DHT22;37205;51.434;6.756;2022-08-04T06:32:55;24.00;99.90
50804;DHT22;37205;51.434;6.756;2022-08-04T06:35:23;24.00;99.90
50804;DHT22;37205;51.434;6.756;2022-08-04T06:37:51;24.10;99.90
50804;DHT22;37205;51.434;6.756;2022-08-04T06:40:19;24.10;99.90
50804;DHT22;37205;51.434;6.756;2022-08-04T06:42:47;24.10;99.90
50804;DHT22;37205;51.434;6.756;2022-08-04T06:45:13;24.10;99.90
50804;DHT22;37205;51.434;6.756;2022-08-04T06:47:40;24.10;99.90
50804;DHT22;37205;51.434;6.756;2022-08-04T06:50:08;24.20;99.90
50804;DHT22;37205;51.434;6.756;2022-08-04T06:52:35;24.20;99.90
50804;DHT22;37205;51.434;6.756;2022-08-04T06:55:01;24.20;99.90
50804;DHT22;37205;51.434;6.756;2022-08-04T06:57:28;24.30;99.90
50804;DHT22;37205;51.434;6.756;2022-08-04T06:59:59;24.30;99.90
50804;DHT22;37205;51.434;6.756;2022-08-04T07:02:27;24.40;99.90
50804;DHT22;37205;51.434;6.756;2022-08-04T07:04:53;24.40;99.90
50804;DHT22;37205;51.434;6.756;2022-08-04T07:07:19;24.40;99.90
50804;DHT22;37205;51.434;6.756;2022-08-04T07:09:45;24.60;99.90
50804;DHT22;37205;51.434;6.756;2022-08-04T07:12:11;24.70;99.90
50804;DHT22;37205;51.434;6.756;2022-08-04T07:14:39;24.80;99.90
50804;DHT22;37205;51.434;6.756;2022-08-04T07:17:07;24.80;99.90
50804;DHT22;37205;51.434;6.756;2022-08-04T07:19:34;24.80;99.90
50804;DHT22;37205;51.434;6.756;2022-08-04T07:22:01;25.00;99.90
50804;DHT22;37205;51.434;6.756;2022-08-04T07:24:34;25.10;99.90
50804;DHT22;37205;51.434;6.756;2022-08-04T07:27:02;25.20;99.90
50804;DHT22;37205;51.434;6.756;2022-08-04T07:29:28;25.30;99.90
50804;DHT22;37205;51.434;6.756;2022-08-04T07:31:55;25.40;99.90
50804;DHT22;37205;51.434;6.756;2022-08-04T07:34:23;25.50;99.90
50804;DHT22;37205;51.434;6.756;2022-08-04T07:36:51;25.60;99.90
50804;DHT22;37205;51.434;6.756;2022-08-04T07:39:17;25.60;99.90
50804;DHT22;37205;51.434;6.756;2022-08-04T07:41:43;25.70;99.90
50804;DHT22;37205;51.434;6.756;2022-08-04T07:44:09;25.80;99.90
50804;DHT22;37205;51.434;6.756;2022-08-04T07:46:37;25.90;99.90
50804;DHT22;37205;51.434;6.756;2022-08-04T07:49:04;26.00;99.90
50804;DHT22;37205;51.434;6.756;2022-08-04T07:51:31;26.10;99.90
50804;DHT22;37205;51.434;6.756;2022-08-04T07:53:58;26.10;99.90
50804;DHT22;37205;51.434;6.756;2022-08-04T07:56:27;26.30;99.90
50804;DHT22;37205;51.434;6.756;2022-08-04T07:58:53;26.40;99.90
50804;DHT22;37205;51.434;6.756;2022-08-04T08:01:19;26.50;99.90
50804;DHT22;37205;51.434;6.756;2022-08-04T08:03:45;26.60;99.90
50804;DHT22;37205;51.434;6.756;2022-08-04T08:06:12;26.60;99.90
50804;DHT22;37205;51.434;6.756;2022-08-04T08:08:38;26.80;99.90
50804;DHT22;37205;51.434;6.756;2022-08-04T08:11:07;26.90;99.90
50804;DHT22;37205;51.434;6.756;2022-08-04T08:13:36;26.90;99.90
50804;DHT22;37205;51.434;6.756;2022-08-04T08:16:06;27.00;99.90
50804;DHT22;37205;51.434;6.756;2022-08-04T08:18:31;27.00;99.90
50804;DHT22;37205;51.434;6.756;2022-08-04T08:20:57;27.10;99.90
50804;DHT22;37205;51.434;6.756;2022-08-04T08:23:25;27.10;99.90
50804;DHT22;37205;51.434;6.756;2022-08-04T08:25:51;27.10;99.90
50804;DHT22;37205;51.434;6.756;2022-08-04T08:28:16;27.20;99.90
50804;DHT22;37205;51.434;6.756;2022-08-04T08:30:42;27.30;99.90
50804;DHT22;37205;51.434;6.756;2022-08-04T08:33:11;27.40;99.90
50804;DHT22;37205;51.434;6.756;2022-08-04T08:35:50;27.50;99.90
50804;DHT22;37205;51.434;6.756;2022-08-04T08:38:20;27.60;99.90
50804;DHT22;37205;51.434;6.756;2022-08-04T08:40:57;27.60;99.90
50804;DHT22;37205;51.434;6.756;2022-08-04T08:52:24;28.10;99.90
50804;DHT22;37205;51.434;6.756;2022-08-04T08:58:06;28.30;99.90
50804;DHT22;37205;51.434;6.756;2022-08-04T09:00:44;28.40;99.90
50804;DHT22;37205;51.434;6.756;2022-08-04T09:06:17;28.70;99.90
50804;DHT22;37205;51.434;6.756;2022-08-04T09:11:23;28.80;99.90
50804;DHT22;37205;51.434;6.756;2022-08-04T09:17:01;28.80;99.90
50804;DHT22;37205;51.434;6.756;2022-08-04T09:20:07;28.80;99.90
50804;DHT22;37205;51.434;6.756;2022-08-04T09:22:40;28.90;99.90
50804;DHT22;37205;51.434;6.756;2022-08-04T09:25:23;28.90;99.90
50804;DHT22;37205;51.434;6.756;2022-08-04T09:27:51;28.90;99.90
50804;DHT22;37205;51.434;6.756;2022-08-04T09:30:38;28.90;99.90
50804;DHT22;37205;51.434;6.756;2022-08-04T09:33:26;29.00;99.90
50804;DHT22;37205;51.434;6.756;2022-08-04T09:36:02;29.10;99.90
50804;DHT22;37205;51.434;6.756;2022-08-04T09:38:43;29.10;99.90
50804;DHT22;37205;51.434;6.756;2022-08-04T09:46:51;29.30;99.90
50804;DHT22;37205;51.434;6.756;2022-08-04T09:49:28;29.40;99.90
50804;DHT22;37205;51.434;6.756;2022-08-04T09:52:22;29.40;99.90
50804;DHT22;37205;51.434;6.756;2022-08-04T10:00:19;29.90;99.10
50804;DHT22;37205;51.434;6.756;2022-08-04T10:02:52;29.80;99.20
50804;DHT22;37205;51.434;6.756;2022-08-04T10:05:22;29.90;99.30
50804;DHT22;37205;51.434;6.756;2022-08-04T10:13:29;30.20;98.80
50804;DHT22;37205;51.434;6.756;2022-08-04T10:22:08;30.40;98.80
50804;DHT22;37205;51.434;6.756;2022-08-04T10:25:04;30.60;98.80
50804;DHT22;37205;51.434;6.756;2022-08-04T10:27:37;30.70;98.60
50804;DHT22;37205;51.434;6.756;2022-08-04T10:30:07;30.70;98.50
50804;DHT22;37205;51.434;6.756;2022-08-04T10:32:52;30.80;98.60
50804;DHT22;37205;51.434;6.756;2022-08-04T10:35:24;30.90;98.70
50804;DHT22;37205;51.434;6.756;2022-08-04T10:38:07;31.10;97.90
50804;DHT22;37205;51.434;6.756;2022-08-04T10:40:37;31.10;97.50
50804;DHT22;37205;51.434;6.756;2022-08-04T10:46:15;31.20;97.50
50804;DHT22;37205;51.434;6.756;2022-08-04T10:49:03;31.30;97.20
50804;DHT22;37205;51.434;6.756;2022-08-04T10:52:02;31.30;97.40
50804;DHT22;37205;51.434;6.756;2022-08-04T10:57:33;31.40;96.40
50804;DHT22;37205;51.434;6.756;2022-08-04T11:00:04;31.50;96.30
50804;DHT22;37205;51.434;6.756;2022-08-04T11:08:17;31.60;96.30
50804;DHT22;37205;51.434;6.756;2022-08-04T11:11:01;31.60;96.30
50804;DHT22;37205;51.434;6.756;2022-08-04T11:14:06;31.70;95.50
50804;DHT22;37205;51.434;6.756;2022-08-04T11:16:45;31.70;95.40
50804;DHT22;37205;51.434;6.756;2022-08-04T11:19:34;31.60;94.80
50804;DHT22;37205;51.434;6.756;2022-08-04T11:22:14;31.70;95.00
50804;DHT22;37205;51.434;6.756;2022-08-04T11:25:11;31.60;94.80
50804;DHT22;37205;51.434;6.756;2022-08-04T11:30:37;31.60;95.30
50804;DHT22;37205;51.434;6.756;2022-08-04T11:38:46;31.70;95.90
50804;DHT22;37205;51.434;6.756;2022-08-04T11:41:20;31.60;96.00
50804;DHT22;37205;51.434;6.756;2022-08-04T11:43:57;31.50;96.00
50804;DHT22;37205;51.434;6.756;2022-08-04T11:46:43;31.50;96.00
50804;DHT22;37205;51.434;6.756;2022-08-04T11:49:32;31.50;96.10
50804;DHT22;37205;51.434;6.756;2022-08-04T11:52:00;31.30;95.30
50804;DHT22;37205;51.434;6.756;2022-08-04T11:54:26;31.10;95.20
50804;DHT22;37205;51.434;6.756;2022-08-04T11:56:53;31.10;95.50
50804;DHT22;37205;51.434;6.756;2022-08-04T11:59:21;30.90;95.60
50804;DHT22;37205;51.434;6.756;2022-08-04T12:04:57;30.90;95.90
50804;DHT22;37205;51.434;6.756;2022-08-04T12:07:54;30.80;96.30
50804;DHT22;37205;51.434;6.756;2022-08-04T12:13:40;30.60;96.00
50804;DHT22;37205;51.434;6.756;2022-08-04T12:16:26;30.40;96.20
50804;DHT22;37205;51.434;6.756;2022-08-04T12:19:03;30.30;96.60
50804;DHT22;37205;51.434;6.756;2022-08-04T12:21:56;30.30;97.50
50804;DHT22;37205;51.434;6.756;2022-08-04T12:24:33;30.30;98.30
50804;DHT22;37205;51.434;6.756;2022-08-04T12:27:06;30.20;99.50
50804;DHT22;37205;51.434;6.756;2022-08-04T12:29:36;29.90;99.90
50804;DHT22;37205;51.434;6.756;2022-08-04T12:35:08;29.70;99.90
50804;DHT22;37205;51.434;6.756;2022-08-04T12:38:01;29.70;99.90
50804;DHT22;37205;51.434;6.756;2022-08-04T12:40:48;29.60;99.90
50804;DHT22;37205;51.434;6.756;2022-08-04T12:43:38;29.50;99.90
50804;DHT22;37205;51.434;6.756;2022-08-04T12:46:11;29.50;99.90
50804;DHT22;37205;51.434;6.756;2022-08-04T12:48:44;29.50;99.90
50804;DHT22;37205;51.434;6.756;2022-08-04T12:51:11;29.50;99.90
50804;DHT22;37205;51.434;6.756;2022-08-04T12:53:42;29.50;99.90
50804;DHT22;37205;51.434;6.756;2022-08-04T12:56:13;29.60;99.90
50804;DHT22;37205;51.434;6.756;2022-08-04T12:58:43;29.60;99.90
50804;DHT22;37205;51.434;6.756;2022-08-04T13:01:20;29.60;99.90
50804;DHT22;37205;51.434;6.756;2022-08-04T13:03:51;29.60;99.90
50804;DHT22;37205;51.434;6.756;2022-08-04T13:06:26;29.70;99.90
50804;DHT22;37205;51.434;6.756;2022-08-04T13:08:54;29.80;99.90
50804;DHT22;37205;51.434;6.756;2022-08-04T13:11:21;29.70;99.90
50804;DHT22;37205;51.434;6.756;2022-08-04T13:13:52;29.60;99.80
50804;DHT22;37205;51.434;6.756;2022-08-04T13:16:18;29.50;99.90
50804;DHT22;37205;51.434;6.756;2022-08-04T13:18:53;29.60;99.90
50804;DHT22;37205;51.434;6.756;2022-08-04T13:21:20;29.50;99.30
50804;DHT22;37205;51.434;6.756;2022-08-04T13:23:57;29.50;99.90
50804;DHT22;37205;51.434;6.756;2022-08-04T13:26:26;29.50;99.80
50804;DHT22;37205;51.434;6.756;2022-08-04T13:28:53;29.60;99.50
50804;DHT22;37205;51.434;6.756;2022-08-04T13:31:23;29.70;99.40
50804;DHT22;37205;51.434;6.756;2022-08-04T13:33:54;29.80;98.40
50804;DHT22;37205;51.434;6.756;2022-08-04T13:36:24;29.90;98.80
50804;DHT22;37205;51.434;6.756;2022-08-04T13:38:57;29.90;98.80
50804;DHT22;37205;51.434;6.756;2022-08-04T13:41:24;30.00;98.40
50804;DHT22;37205;51.434;6.756;2022-08-04T13:43:54;30.00;97.90
50804;DHT22;37205;51.434;6.756;2022-08-04T13:46:26;30.10;97.30
50804;DHT22;37205;51.434;6.756;2022-08-04T13:48:52;30.10;97.10
50804;DHT22;37205;51.434;6.756;2022-08-04T13:51:21;30.20;97.50
50804;DHT22;37205;51.434;6.756;2022-08-04T13:53:56;30.20;98.30
50804;DHT22;37205;51.434;6.756;2022-08-04T13:56:22;30.50;98.20
50804;DHT22;37205;51.434;6.756;2022-08-04T13:58:54;30.70;98.00
50804;DHT22;37205;51.434;6.756;2022-08-04T14:01:25;31.00;97.30
50804;DHT22;37205;51.434;6.756;2022-08-04T14:04:11;31.30;96.90
50804;DHT22;37205;51.434;6.756;2022-08-04T14:06:52;31.70;96.70
50804;DHT22;37205;51.434;6.756;2022-08-04T14:09:21;31.80;96.70
50804;DHT22;37205;51.434;6.756;2022-08-04T14:11:50;31.80;96.80
50804;DHT22;37205;51.434;6.756;2022-08-04T14:14:25;31.60;97.10
50804;DHT22;37205;51.434;6.756;2022-08-04T14:19:23;30.90;97.80
50804;DHT22;37205;51.434;6.756;2022-08-04T14:21:49;30.90;97.90
50804;DHT22;37205;51.434;6.756;2022-08-04T14:24:27;30.60;98.20
50804;DHT22;37205;51.434;6.756;2022-08-04T14:26:59;30.50;98.60
50804;DHT22;37205;51.434;6.756;2022-08-04T14:29:37;30.30;98.80
50804;DHT22;37205;51.434;6.756;2022-08-04T14:32:04;30.40;98.60
50804;DHT22;37205;51.434;6.756;2022-08-04T14:34:30;30.50;98.50
50804;DHT22;37205;51.434;6.756;2022-08-04T14:37:06;30.40;98.40
50804;DHT22;37205;51.434;6.756;2022-08-04T14:39:39;30.20;99.00
50804;DHT22;37205;51.434;6.756;2022-08-04T14:42:05;30.00;98.80
50804;DHT22;37205;51.434;6.756;2022-08-04T14:44:31;30.00;99.10
50804;DHT22;37205;51.434;6.756;2022-08-04T14:47:16;30.00;99.00
50804;DHT22;37205;51.434;6.756;2022-08-04T14:49:53;29.90;99.00
50804;DHT22;37205;51.434;6.756;2022-08-04T14:52:23;29.90;99.30
50804;DHT22;37205;51.434;6.756;2022-08-04T14:54:49;29.80;99.30
50804;DHT22;37205;51.434;6.756;2022-08-04T14:57:15;29.80;99.40
50804;DHT22;37205;51.434;6.756;2022-08-04T14:59:43;29.80;99.50
50804;DHT22;37205;51.434;6.756;2022-08-04T15:02:10;29.80;99.60
50804;DHT22;37205;51.434;6.756;2022-08-04T15:04:38;29.70;99.80
50804;DHT22;37205;51.434;6.756;2022-08-04T15:07:08;29.70;99.90
50804;DHT22;37205;51.434;6.756;2022-08-04T15:09:34;29.60;99.80
50804;DHT22;37205;51.434;6.756;2022-08-04T15:12:02;29.60;99.80
50804;DHT22;37205;51.434;6.756;2022-08-04T15:14:29;29.50;99.60
50804;DHT22;37205;51.434;6.756;2022-08-04T15:16:56;29.40;98.90
50804;DHT22;37205;51.434;6.756;2022-08-04T15:19:22;29.20;98.20
50804;DHT22;37205;51.434;6.756;2022-08-04T15:21:48;29.10;98.30
50804;DHT22;37205;51.434;6.756;2022-08-04T15:24:14;29.10;98.50
50804;DHT22;37205;51.434;6.756;2022-08-04T15:26:48;29.10;98.60
50804;DHT22;37205;51.434;6.756;2022-08-04T15:29:19;29.10;98.50
50804;DHT22;37205;51.434;6.756;2022-08-04T15:31:47;29.10;98.50
50804;DHT22;37205;51.434;6.756;2022-08-04T15:34:13;29.00;98.80
50804;DHT22;37205;51.434;6.756;2022-08-04T15:36:47;29.00;99.20
50804;DHT22;37205;51.434;6.756;2022-08-04T15:42:30;28.90;99.80
50804;DHT22;37205;51.434;6.756;2022-08-04T15:45:01;28.90;99.80
50804;DHT22;37205;51.434;6.756;2022-08-04T15:47:28;29.00;99.90
50804;DHT22;37205;51.434;6.756;2022-08-04T15:50:10;28.90;99.90
50804;DHT22;37205;51.434;6.756;2022-08-04T15:55:36;28.70;99.90
50804;DHT22;37205;51.434;6.756;2022-08-04T15:58:12;28.70;99.90
50804;DHT22;37205;51.434;6.756;2022-08-04T16:06:00;28.60;99.90
50804;DHT22;37205;51.434;6.756;2022-08-04T16:19:09;28.50;99.90
50804;DHT22;37205;51.434;6.756;2022-08-04T16:21:49;28.50;99.90
50804;DHT22;37205;51.434;6.756;2022-08-04T16:26:50;28.40;99.90
50804;DHT22;37205;51.434;6.756;2022-08-04T16:34:32;28.40;99.90
50804;DHT22;37205;51.434;6.756;2022-08-04T16:37:00;28.70;99.90
50804;DHT22;37205;51.434;6.756;2022-08-04T16:39:27;28.90;99.90
50804;DHT22;37205;51.434;6.756;2022-08-04T16:41:52;29.20;99.90
50804;DHT22;37205;51.434;6.756;2022-08-04T16:44:34;29.40;99.90
50804;DHT22;37205;51.434;6.756;2022-08-04T16:47:06;29.60;99.90
50804;DHT22;37205;51.434;6.756;2022-08-04T16:49:33;29.70;99.90
50804;DHT22;37205;51.434;6.756;2022-08-04T16:52:06;29.80;99.90
50804;DHT22;37205;51.434;6.756;2022-08-04T16:54:34;29.90;99.90
50804;DHT22;37205;51.434;6.756;2022-08-04T16:57:07;30.20;99.90
50804;DHT22;37205;51.434;6.756;2022-08-04T16:59:33;30.40;99.90
50804;DHT22;37205;51.434;6.756;2022-08-04T17:01:59;30.40;99.80
50804;DHT22;37205;51.434;6.756;2022-08-04T17:04:32;30.30;99.60
50804;DHT22;37205;51.434;6.756;2022-08-04T17:06:59;30.00;99.90
50804;DHT22;37205;51.434;6.756;2022-08-04T17:09:25;29.60;99.90
50804;DHT22;37205;51.434;6.756;2022-08-04T17:11:52;29.60;99.90
50804;DHT22;37205;51.434;6.756;2022-08-04T17:14:21;29.40;99.90
50804;DHT22;37205;51.434;6.756;2022-08-04T17:16:47;29.30;99.90
50804;DHT22;37205;51.434;6.756;2022-08-04T17:19:13;29.30;99.90
50804;DHT22;37205;51.434;6.756;2022-08-04T17:21:39;29.40;99.90
50804;DHT22;37205;51.434;6.756;2022-08-04T17:24:05;29.70;99.90
50804;DHT22;37205;51.434;6.756;2022-08-04T17:26:33;29.80;99.90
50804;DHT22;37205;51.434;6.756;2022-08-04T17:28:59;29.90;99.90
50804;DHT22;37205;51.434;6.756;2022-08-04T17:31:27;29.80;99.90
50804;DHT22;37205;51.434;6.756;2022-08-04T17:33:55;29.70;99.90
50804;DHT22;37205;51.434;6.756;2022-08-04T17:36:26;29.60;99.90
50804;DHT22;37205;51.434;6.756;2022-08-04T17:39:00;29.20;99.90
50804;DHT22;37205;51.434;6.756;2022-08-04T17:41:27;29.10;99.90
50804;DHT22;37205;51.434;6.756;2022-08-04T17:44:11;29.10;99.90
50804;DHT22;37205;51.434;6.756;2022-08-04T17:46:42;29.10;99.90
50804;DHT22;37205;51.434;6.756;2022-08-04T17:54:13;28.70;99.90
50804;DHT22;37205;51.434;6.756;2022-08-04T18:02:03;28.30;99.90
50804;DHT22;37205;51.434;6.756;2022-08-04T18:04:30;28.30;99.90
50804;DHT22;37205;51.434;6.756;2022-08-04T18:06:58;28.30;99.90
50804;DHT22;37205;51.434;6.756;2022-08-04T18:09:32;28.30;99.90
50804;DHT22;37205;51.434;6.756;2022-08-04T18:12:07;28.10;99.90
50804;DHT22;37205;51.434;6.756;2022-08-04T18:14:44;28.00;99.90
50804;DHT22;37205;51.434;6.756;2022-08-04T18:17:12;27.80;99.90
50804;DHT22;37205;51.434;6.756;2022-08-04T18:19:38;27.80;99.90
50804;DHT22;37205;51.434;6.756;2022-08-04T18:22:14;27.50;99.90
50804;DHT22;37205;51.434;6.756;2022-08-04T18:24:39;27.60;99.90
50804;DHT22;37205;51.434;6.756;2022-08-04T18:27:05;27.50;99.90
50804;DHT22;37205;51.434;6.756;2022-08-04T18:29:32;27.50;99.90
50804;DHT22;37205;51.434;6.756;2022-08-04T18:31:58;27.30;99.90
50804;DHT22;37205;51.434;6.756;2022-08-04T18:34:24;27.30;99.90
50804;DHT22;37205;51.434;6.756;2022-08-04T18:36:49;27.30;99.90
50804;DHT22;37205;51.434;6.756;2022-08-04T18:39:15;27.20;99.90
50804;DHT22;37205;51.434;6.756;2022-08-04T18:41:42;27.20;99.90
50804;DHT22;37205;51.434;6.756;2022-08-04T18:44:08;27.10;99.90
50804;DHT22;37205;51.434;6.756;2022-08-04T18:46:33;27.10;99.90
50804;DHT22;37205;51.434;6.756;2022-08-04T18:48:59;27.00;99.90
50804;DHT22;37205;51.434;6.756;2022-08-04T18:51:24;27.00;99.90
50804;DHT22;37205;51.434;6.756;2022-08-04T18:53:51;27.00;99.90
50804;DHT22;37205;51.434;6.756;2022-08-04T18:56:17;27.00;99.90
50804;DHT22;37205;51.434;6.756;2022-08-04T18:58:43;27.00;99.90
50804;DHT22;37205;51.434;6.756;2022-08-04T19:01:08;27.00;99.90
50804;DHT22;37205;51.434;6.756;2022-08-04T19:03:35;26.90;99.90
50804;DHT22;37205;51.434;6.756;2022-08-04T19:06:01;26.90;99.90
50804;DHT22;37205;51.434;6.756;2022-08-04T19:08:29;26.80;99.90
50804;DHT22;37205;51.434;6.756;2022-08-04T19:10:54;26.70;99.90
50804;DHT22;37205;51.434;6.756;2022-08-04T19:13:20;26.70;99.90
50804;DHT22;37205;51.434;6.756;2022-08-04T19:15:46;26.70;99.90
50804;DHT22;37205;51.434;6.756;2022-08-04T19:18:11;26.60;99.90
50804;DHT22;37205;51.434;6.756;2022-08-04T19:20:37;26.40;99.90
50804;DHT22;37205;51.434;6.756;2022-08-04T19:23:03;26.40;99.90
50804;DHT22;37205;51.434;6.756;2022-08-04T19:25:29;26.30;99.90
50804;DHT22;37205;51.434;6.756;2022-08-04T19:27:55;26.30;99.90
50804;DHT22;37205;51.434;6.756;2022-08-04T19:30:20;26.30;99.90
50804;DHT22;37205;51.434;6.756;2022-08-04T19:32:46;26.30;99.90
50804;DHT22;37205;51.434;6.756;2022-08-04T19:35:11;26.20;99.90
50804;DHT22;37205;51.434;6.756;2022-08-04T19:37:37;26.20;99.90
50804;DHT22;37205;51.434;6.756;2022-08-04T19:40:07;26.30;99.90
50804;DHT22;37205;51.434;6.756;2022-08-04T19:42:34;26.30;99.90
50804;DHT22;37205;51.434;6.756;2022-08-04T19:45:00;26.20;99.90
50804;DHT22;37205;51.434;6.756;2022-08-04T19:47:26;26.10;99.90
50804;DHT22;37205;51.434;6.756;2022-08-04T19:49:51;26.10;99.90
50804;DHT22;37205;51.434;6.756;2022-08-04T19:52:18;26.10;99.90
50804;DHT22;37205;51.434;6.756;2022-08-04T19:54:46;26.00;99.90
50804;DHT22;37205;51.434;6.756;2022-08-04T19:57:12;26.00;99.90
50804;DHT22;37205;51.434;6.756;2022-08-04T19:59:37;26.00;99.90
50804;DHT22;37205;51.434;6.756;2022-08-04T20:02:03;26.00;99.90